createdAt,value
2023-03-29T00:04:51.810Z,953
2023-03-29T00:09:58.235Z,953
2023-03-29T00:15:04.686Z,952.9
2023-03-29T00:20:11.047Z,952.9
2023-03-29T00:25:17.472Z,952.9
2023-03-29T00:35:30.295Z,952.8
2023-03-29T00:40:36.720Z,952.7
2023-03-29T00:45:43.130Z,952.7
2023-03-29T00:50:49.544Z,952.6
2023-03-29T00:55:55.949Z,952.5
2023-03-29T01:01:02.364Z,952.5
2023-03-29T01:06:08.789Z,952.4
2023-03-29T01:11:15.226Z,952.3
2023-03-29T01:16:21.615Z,952.3
2023-03-29T01:21:28.031Z,952.1
2023-03-29T01:26:34.443Z,952
2023-03-29T01:31:40.849Z,952
2023-03-29T01:36:47.267Z,951.9
2023-03-29T01:41:54.051Z,951.8
2023-03-29T01:47:00.119Z,951.8
2023-03-29T01:52:06.526Z,951.7
2023-03-29T01:57:12.927Z,951.7
2023-03-29T02:02:19.343Z,951.7
2023-03-29T02:07:25.753Z,951.6
2023-03-29T02:12:32.166Z,951.6
2023-03-29T02:17:38.579Z,951.6
2023-03-29T02:22:44.996Z,951.5
2023-03-29T02:27:51.431Z,951.5
2023-03-29T02:32:57.823Z,951.4
2023-03-29T02:38:04.238Z,951.3
2023-03-29T02:43:10.641Z,951.3
2023-03-29T02:48:17.091Z,951.3
2023-03-29T02:53:23.479Z,951.2
2023-03-29T02:58:29.886Z,951.2
2023-03-29T03:03:36.301Z,951.1
2023-03-29T03:08:42.715Z,951
2023-03-29T03:13:49.150Z,950.9
2023-03-29T03:18:55.555Z,951
2023-03-29T03:24:01.965Z,950.9
2023-03-29T03:29:08.370Z,950.9
2023-03-29T03:34:14.776Z,950.9
2023-03-29T03:39:21.195Z,950.9
2023-03-29T03:44:27.606Z,950.9
2023-03-29T03:49:34.033Z,950.8
2023-03-29T03:54:40.428Z,950.7
2023-03-29T03:59:46.848Z,950.7
2023-03-29T04:04:53.260Z,950.6
2023-03-29T04:09:59.676Z,950.6
2023-03-29T04:15:06.096Z,950.6
2023-03-29T04:20:12.712Z,950.5
2023-03-29T04:25:18.922Z,950.5
2023-03-29T04:30:25.335Z,950.4
2023-03-29T04:35:31.747Z,950.5
2023-03-29T04:40:38.160Z,950.4
2023-03-29T04:45:44.481Z,950.4
2023-03-29T04:50:50.776Z,950.5
2023-03-29T04:55:57.110Z,950.4
2023-03-29T05:01:03.406Z,950.3
2023-03-29T05:06:09.697Z,950.4
2023-03-29T05:11:16.009Z,950.4
2023-03-29T05:16:22.317Z,950.4
2023-03-29T05:21:28.632Z,950.4
2023-03-29T05:26:34.929Z,950.4
2023-03-29T05:31:41.227Z,950.4
2023-03-29T05:36:47.546Z,950.4
2023-03-29T05:41:53.838Z,950.3
2023-03-29T05:47:00.153Z,950.3
2023-03-29T05:52:06.449Z,950.2
2023-03-29T05:57:12.774Z,950.2
2023-03-29T06:02:19.069Z,950.2
2023-03-29T06:07:25.387Z,950.2
2023-03-29T06:12:31.683Z,950.2
2023-03-29T06:17:37.984Z,950.2
2023-03-29T06:22:44.300Z,950.1
2023-03-29T06:27:50.610Z,950.1
2023-03-29T06:32:56.915Z,950.1
2023-03-29T06:38:03.214Z,950.1
2023-03-29T06:43:09.528Z,950.2
2023-03-29T06:48:15.830Z,950.1
2023-03-29T06:53:22.143Z,950.3
2023-03-29T06:58:28.439Z,950.2
2023-03-29T07:03:34.807Z,950.3
2023-03-29T07:08:41.051Z,950.3
2023-03-29T07:13:47.361Z,950.3
2023-03-29T07:18:53.662Z,950.3
2023-03-29T07:23:59.979Z,950.3
2023-03-29T07:29:06.275Z,950.3
2023-03-29T07:34:12.585Z,950.3
2023-03-29T07:39:18.886Z,950.3
2023-03-29T07:44:25.211Z,950.3
2023-03-29T07:49:31.542Z,950.2
2023-03-29T07:59:44.137Z,950.2
2023-03-29T08:04:50.419Z,950.2
2023-03-29T08:09:56.719Z,950.2
2023-03-29T08:15:03.030Z,950.1
2023-03-29T08:20:09.366Z,950.1
2023-03-29T08:25:15.648Z,950.1
2023-03-29T08:30:21.953Z,950.1
2023-03-29T08:35:28.263Z,950.1
2023-03-29T08:40:34.574Z,950.1
2023-03-29T08:45:40.873Z,950
2023-03-29T08:55:53.490Z,949.9
2023-03-29T09:00:59.794Z,949.9
2023-03-29T09:06:06.104Z,950
2023-03-29T09:11:12.400Z,950.1
2023-03-29T09:16:18.713Z,950.1
2023-03-29T09:21:25.019Z,950.2
2023-03-29T09:26:31.317Z,950.2
2023-03-29T09:31:37.633Z,950.1
2023-03-29T09:36:43.935Z,950.1
2023-03-29T09:41:50.236Z,950.1
2023-03-29T09:46:56.558Z,950.1
2023-03-29T09:52:02.914Z,950
2023-03-29T09:57:09.401Z,950
2023-03-29T10:02:15.511Z,950
2023-03-29T10:07:21.774Z,950
2023-03-29T10:12:28.089Z,949.9
2023-03-29T10:17:34.384Z,950
2023-03-29T10:27:46.994Z,949.9
2023-03-29T10:32:53.322Z,949.8
2023-03-29T10:37:59.722Z,949.8
2023-03-29T10:43:05.916Z,949.8
2023-03-29T10:48:12.284Z,949.9
2023-03-29T10:53:18.567Z,949.9
2023-03-29T10:58:24.831Z,949.9
2023-03-29T11:03:31.150Z,950
2023-03-29T11:08:37.445Z,950
2023-03-29T11:13:43.756Z,950.1
2023-03-29T11:18:50.068Z,950.1
2023-03-29T11:23:56.387Z,950.1
2023-03-29T11:29:02.676Z,949.9
2023-03-29T11:34:08.998Z,950
2023-03-29T11:39:15.292Z,949.9
2023-03-29T11:49:27.925Z,949.9
2023-03-29T11:54:34.212Z,949.8
2023-03-29T11:59:40.513Z,949.9
2023-03-29T12:04:46.822Z,949.9
2023-03-29T12:09:53.151Z,949.9
2023-03-29T12:14:59.434Z,949.9
2023-03-29T12:20:05.750Z,949.9
2023-03-29T12:25:12.051Z,949.8
2023-03-29T12:30:18.355Z,949.7
2023-03-29T12:40:30.967Z,949.7
2023-03-29T12:45:37.269Z,949.6
2023-03-29T12:50:43.592Z,949.6
2023-03-29T12:55:49.874Z,949.6
2023-03-29T13:00:56.195Z,949.6
2023-03-29T13:06:02.505Z,949.5
2023-03-29T13:11:08.800Z,949.6
2023-03-29T13:16:15.112Z,949.6
2023-03-29T13:21:21.424Z,949.6
2023-03-29T13:26:27.725Z,949.6
2023-03-29T13:31:34.038Z,949.6
2023-03-29T13:36:40.351Z,949.5
2023-03-29T13:41:46.644Z,949.5
2023-03-29T13:46:52.954Z,949.5
2023-03-29T13:51:59.264Z,949.5
2023-03-29T13:57:05.566Z,949.4
2023-03-29T14:02:11.872Z,949.3
2023-03-29T14:07:18.183Z,949.3
2023-03-29T14:12:24.495Z,949.2
2023-03-29T14:17:30.837Z,949.2
2023-03-29T14:22:37.089Z,949.2
2023-03-29T14:27:43.399Z,949.2
2023-03-29T14:32:49.705Z,949.2
2023-03-29T14:37:56.032Z,949.2
2023-03-29T14:43:02.307Z,949.2
2023-03-29T14:48:08.625Z,949.2
2023-03-29T14:53:14.932Z,949.2
2023-03-29T14:58:21.244Z,949.2
2023-03-29T15:03:27.548Z,949.1
2023-03-29T15:08:33.852Z,949.1
2023-03-29T15:13:40.170Z,949.1
2023-03-29T15:18:46.463Z,949
2023-03-29T15:23:52.765Z,948.9
2023-03-29T15:28:59.079Z,948.9
2023-03-29T15:34:05.380Z,948.8
2023-03-29T15:39:11.693Z,948.7
2023-03-29T15:44:17.996Z,948.7
2023-03-29T15:49:24.303Z,948.7
2023-03-29T15:54:30.608Z,948.6
2023-03-29T15:59:36.928Z,948.5
2023-03-29T16:04:43.220Z,948.5
2023-03-29T16:09:49.536Z,948.4
2023-03-29T16:14:55.837Z,948.4
2023-03-29T16:20:02.155Z,948.4
2023-03-29T16:25:08.451Z,948.3
2023-03-29T16:30:14.749Z,948.4
2023-03-29T16:35:21.060Z,948.3
2023-03-29T16:40:27.367Z,948.3
2023-03-29T16:45:33.663Z,948.2
2023-03-29T16:50:39.980Z,948.3
2023-03-29T16:55:46.276Z,948.2
2023-03-29T17:00:52.586Z,948.2
2023-03-29T17:05:58.894Z,948.2
2023-03-29T17:11:05.201Z,948.3
2023-03-29T17:16:11.506Z,948.3
2023-03-29T17:21:17.847Z,948.3
2023-03-29T17:26:24.110Z,948.3
2023-03-29T17:31:30.420Z,948.3
2023-03-29T17:36:36.711Z,948.2
2023-03-29T17:41:43.038Z,948.2
2023-03-29T17:46:49.338Z,948.1
2023-03-29T17:51:55.704Z,948.1
2023-03-29T17:57:01.957Z,948.1
2023-03-29T18:02:08.269Z,948.1
2023-03-29T18:07:14.562Z,948
2023-03-29T18:12:20.932Z,948.1
2023-03-29T18:17:27.344Z,948
2023-03-29T18:22:33.753Z,948
2023-03-29T18:27:40.189Z,948
2023-03-29T18:32:46.581Z,947.9
2023-03-29T18:37:53.016Z,947.9
2023-03-29T18:42:59.421Z,947.8
2023-03-29T18:48:05.829Z,948
2023-03-29T18:53:12.239Z,947.9
2023-03-29T18:58:18.657Z,947.9
2023-03-29T19:03:25.114Z,947.9
2023-03-29T19:08:31.491Z,947.9
2023-03-29T19:13:37.909Z,948
2023-03-29T19:18:44.312Z,947.9
2023-03-29T19:23:50.740Z,947.9
2023-03-29T19:28:57.144Z,947.9
2023-03-29T19:34:03.561Z,947.8
2023-03-29T19:39:09.967Z,947.9
2023-03-29T19:44:16.382Z,947.8
2023-03-29T19:49:22.789Z,947.6
2023-03-29T19:54:29.197Z,947.5
2023-03-29T19:59:35.610Z,947.6
2023-03-29T20:04:42.035Z,947.5
2023-03-29T20:09:48.448Z,947.5
2023-03-29T20:14:54.910Z,947.5
2023-03-29T20:20:01.276Z,947.5
2023-03-29T20:25:07.692Z,947.5
2023-03-29T20:30:14.114Z,947.3
2023-03-29T20:35:20.523Z,947.3
2023-03-29T20:40:26.930Z,947.1
2023-03-29T20:45:33.365Z,947.1
2023-03-29T20:50:39.763Z,947.1
2023-03-29T20:55:46.161Z,947
2023-03-29T21:00:52.584Z,946.6
2023-03-29T21:05:59.004Z,946.9
2023-03-29T21:11:05.419Z,946.8
2023-03-29T21:16:11.846Z,946.7
2023-03-29T21:21:18.238Z,946.5
2023-03-29T21:26:24.663Z,946.3
2023-03-29T21:31:31.068Z,946.5
2023-03-29T21:36:37.511Z,946.5
2023-03-29T21:41:43.907Z,946.5
2023-03-29T21:46:50.319Z,946.4
2023-03-29T21:51:56.728Z,946.4
2023-03-29T21:57:03.147Z,946.3
2023-03-29T22:02:09.557Z,946.2
2023-03-29T22:07:15.970Z,946.2
2023-03-29T22:12:22.375Z,946.2
2023-03-29T22:17:28.794Z,946.1
2023-03-29T22:22:35.212Z,946.1
2023-03-29T22:27:41.618Z,946.1
2023-03-29T22:32:48.041Z,946
2023-03-29T22:37:54.442Z,945.9
2023-03-29T22:43:00.862Z,945.8
2023-03-29T22:48:07.280Z,945.7
2023-03-29T22:53:13.694Z,945.7
2023-03-29T22:58:20.107Z,945.6
2023-03-29T23:03:26.524Z,945.6
2023-03-29T23:08:32.928Z,945.5
2023-03-29T23:13:39.348Z,945.5
2023-03-29T23:18:45.826Z,945.3
2023-03-29T23:23:52.180Z,945.2
2023-03-29T23:28:58.602Z,945.2
2023-03-29T23:34:05.002Z,945.2
2023-03-29T23:39:11.412Z,945.1
2023-03-29T23:44:17.824Z,945.1
2023-03-29T23:49:24.242Z,945
2023-03-29T23:54:30.645Z,945
2023-03-29T23:59:37.069Z,944.9
